Meridian, Texas
Current Conditions -  °F | °C
As of 7:15 PM on Saturday 22 Nov 2014 (Local Time) from KCPT Reporting Station
Moderate Rain Moderate Rain  
Wind Chill: 57°   Ceiling: 2700
Heat Index: 57°   Visibility: 6mi
Dew Point: 57°   Wind: 9mph
Humidity: 100%   Direction: 10°N
Pressure: 29.88"   Gusts: NA
Location:  31.92°N, 97.66°W
Report Text: KCPT 230115Z AUTO 01008KT 6SM RA FEW001 SCT016 OVC027 14/14 A2988 RMK AO2 LTG DSNT S AND SW
Loading
Personal Weather Stations






























Interactive Weather Map New forecast layout! Learn more

10-Day Weather Forecast

Advertisements
Track Severe Weather on mobile